Time;durP1;ratioP1;P1;durP2;ratioP2;P2;SDS_P1;SDS_P2;PMS_P1;PMS_P2;Temp;Humidity;BMP_temperature;BMP_pressure;BME280_temperature;BME280_humidity;BME280_pressure;Samples;Min_cycle;Max_cycle;Signal;HPM_P1;HPM_P2
2023/06/27 00:00:43;;;;;;;110.40;105.40;;;;;;;26.63;30.98;101893.44;5101618;28;20028;-75
2023/06/27 00:03:08;;;;;;;115.28;109.13;;;;;;;26.61;30.82;101895.72;5096596;28;20063;-76
2023/06/27 00:05:35;;;;;;;110.95;105.68;;;;;;;26.59;31.22;101891.66;5095137;28;20042;-74
2023/06/27 00:08:00;;;;;;;108.93;103.82;;;;;;;26.57;30.88;101899.47;5096133;28;20035;-74
2023/06/27 00:10:26;;;;;;;115.32;109.70;;;;;;;26.55;31.14;101897.00;5095840;28;20383;-74
2023/06/27 00:12:52;;;;;;;108.45;103.45;;;;;;;26.53;31.33;101885.44;5077459;28;20070;-74
2023/06/27 00:15:18;;;;;;;110.15;105.30;;;;;;;26.50;31.36;101895.19;5094605;28;20100;-75
2023/06/27 00:17:44;;;;;;;111.72;106.32;;;;;;;26.48;30.95;101897.44;5095743;28;20495;-74
2023/06/27 00:20:11;;;;;;;110.70;105.97;;;;;;;26.45;31.13;101880.66;5096115;28;20056;-74
2023/06/27 00:22:39;;;;;;;110.30;104.85;;;;;;;26.43;31.57;101896.78;5077922;28;20085;-75
2023/06/27 00:25:05;;;;;;;;;;;;;;;26.40;31.20;101892.72;5095579;28;20062;-74
2023/06/27 00:27:31;;;;;;;105.22;100.63;;;;;;;26.37;31.47;101895.31;5094369;28;19908;-78
2023/06/27 00:29:56;;;;;;;107.60;102.65;;;;;;;26.33;31.48;101892.38;5095584;28;20039;-75
2023/06/27 00:32:22;;;;;;;106.95;101.85;;;;;;;26.31;31.24;101889.13;5094303;28;20111;-75
2023/06/27 00:34:47;;;;;;;110.80;104.95;;;;;;;26.29;31.31;101894.97;5093950;28;20040;-74
2023/06/27 00:37:12;;;;;;;105.78;101.03;;;;;;;26.26;31.28;101887.31;5094307;28;20032;-75
2023/06/27 00:39:40;;;;;;;107.50;102.60;;;;;;;26.24;31.71;101897.91;5093935;28;20085;-74
2023/06/27 00:42:06;;;;;;;111.32;106.10;;;;;;;26.22;31.50;101891.03;5095749;28;20479;-74
2023/06/27 00:44:31;;;;;;;104.70;99.80;;;;;;;26.20;31.78;101894.13;5094136;28;20040;-76
2023/06/27 00:46:58;;;;;;;108.80;103.68;;;;;;;26.18;31.39;101890.84;5095042;28;20092;-75
2023/06/27 00:49:23;;;;;;;102.63;98.10;;;;;;;26.15;31.80;101891.50;5095509;28;20032;-74
2023/06/27 00:51:50;;;;;;;107.60;101.88;;;;;;;26.12;31.48;101889.38;5095544;28;20036;-75
2023/06/27 00:54:17;;;;;;;104.43;99.53;;;;;;;26.10;31.46;101892.47;5077830;28;20090;-73
2023/06/27 00:56:43;;;;;;;105.25;100.43;;;;;;;26.08;31.75;101897.53;5099292;28;20039;-74
2023/06/27 00:59:09;;;;;;;106.25;101.25;;;;;;;26.05;31.78;101892.59;5100854;28;20021;-75
2023/06/27 01:01:34;;;;;;;106.30;101.05;;;;;;;26.03;32.06;101899.59;5098825;28;20032;-77
2023/06/27 01:03:59;;;;;;;109.60;104.80;;;;;;;26.02;31.99;101892.44;5081928;28;20040;-75
2023/06/27 01:06:52;;;;;;;105.10;100.32;;;;;;;25.99;32.10;101893.91;5098173;28;20036;-75
2023/06/27 01:09:47;;;;;;;105.78;100.93;;;;;;;25.95;31.81;101897.63;5096339;28;20104;-77
2023/06/27 01:12:23;;;;;;;104.60;99.75;;;;;;;25.93;31.64;101905.41;5088684;28;20044;-74
2023/06/27 01:14:52;;;;;;;104.82;99.82;;;;;;;25.90;32.23;101904.94;5094358;28;20051;-74
2023/06/27 01:17:19;;;;;;;105.43;100.43;;;;;;;25.88;32.21;101901.69;5095023;28;20020;-75
2023/06/27 01:19:45;;;;;;;107.07;102.28;;;;;;;25.85;31.96;101896.75;5094510;28;20032;-75
2023/06/27 01:22:17;;;;;;;103.13;98.38;;;;;;;25.83;31.82;101899.00;5076392;28;20030;-75
2023/06/27 01:24:43;;;;;;;104.57;99.80;;;;;;;25.81;32.10;101898.50;5094526;28;20455;-75
2023/06/27 01:27:11;;;;;;;102.32;97.55;;;;;;;25.78;32.37;101893.63;5093558;28;20036;-75
2023/06/27 01:29:41;;;;;;;100.55;95.30;;;;;;;25.78;31.92;101903.84;5094527;28;20031;-78
2023/06/27 01:32:21;;;;;;;102.15;96.68;;;;;;;25.75;32.28;101907.25;5093820;28;20365;-75
2023/06/27 01:34:49;;;;;;;102.63;98.03;;;;;;;25.72;32.53;101899.59;5095946;28;20024;-75
2023/06/27 01:37:20;;;;;;;;;;;;;;;25.70;31.94;101905.44;5095949;28;20356;-75
2023/06/27 01:39:51;;;;;;;104.72;99.90;;;;;;;25.66;31.94;101893.38;5094847;28;19912;-75
2023/06/27 01:42:26;;;;;;;103.80;99.10;;;;;;;25.64;32.57;101901.19;5094839;28;20035;-74
2023/06/27 01:44:53;;;;;;;107.15;101.82;;;;;;;25.62;32.67;101892.38;5093931;28;20020;-76
2023/06/27 01:47:21;;;;;;;103.95;99.35;;;;;;;25.59;32.22;101896.59;5092930;28;20133;-74
2023/06/27 01:49:47;;;;;;;101.47;97.00;;;;;;;25.58;32.76;101886.69;5093778;28;20498;-74
2023/06/27 01:52:12;;;;;;;100.97;96.40;;;;;;;25.55;32.37;101887.31;5094378;28;20032;-74
2023/06/27 01:54:42;;;;;;;100.20;95.65;;;;;;;25.54;32.78;101887.63;5092417;28;20460;-74
2023/06/27 01:57:08;;;;;;;101.10;96.15;;;;;;;25.51;32.73;101891.84;5093732;28;20024;-75
2023/06/27 01:59:33;;;;;;;101.15;96.07;;;;;;;25.50;32.86;101878.31;5092767;28;20058;-74
2023/06/27 02:01:59;;;;;;;101.68;96.72;;;;;;;25.47;32.80;101883.34;5093568;28;20030;-74
2023/06/27 02:04:24;;;;;;;99.82;95.43;;;;;;;25.45;32.35;101893.94;5094428;28;20028;-74
2023/06/27 02:06:50;;;;;;;106.55;101.78;;;;;;;25.44;32.56;101883.16;5093645;28;20479;-74
2023/06/27 02:09:15;;;;;;;101.22;96.18;;;;;;;25.41;32.70;101883.81;5093099;28;20039;-74
2023/06/27 02:11:41;;;;;;;101.93;96.78;;;;;;;25.39;32.72;101889.63;5092558;28;20040;-75
2023/06/27 02:14:06;;;;;;;98.55;93.97;;;;;;;25.37;32.68;101880.84;5093408;28;20032;-75
2023/06/27 02:16:31;;;;;;;100.80;95.95;;;;;;;25.35;32.96;101874.81;5092564;28;20077;-75
2023/06/27 02:18:57;;;;;;;101.00;96.20;;;;;;;25.33;32.80;101874.31;5092723;28;20036;-75
2023/06/27 02:21:22;;;;;;;100.85;96.25;;;;;;;25.32;33.10;101877.38;5092271;28;20028;-75
2023/06/27 02:23:48;;;;;;;98.00;93.30;;;;;;;25.30;32.79;101886.03;5093622;28;20479;-75
2023/06/27 02:26:13;;;;;;;102.25;97.47;;;;;;;25.28;32.88;101879.16;5092506;28;20039;-75
2023/06/27 02:28:38;;;;;;;100.18;95.57;;;;;;;25.25;33.33;101875.91;5075550;28;20422;-75
2023/06/27 02:31:04;;;;;;;100.68;95.90;;;;;;;25.23;32.83;101878.16;5094323;28;20028;-75
2023/06/27 02:33:29;;;;;;;100.88;96.32;;;;;;;25.22;33.13;101873.78;5059217;28;20028;-75
2023/06/27 02:35:55;;;;;;;101.32;96.38;;;;;;;25.19;33.33;101874.38;5093259;28;20036;-75
2023/06/27 02:38:20;;;;;;;101.93;97.03;;;;;;;25.18;33.21;101869.19;5093914;28;20035;-74
2023/06/27 02:40:47;;;;;;;100.63;95.47;;;;;;;25.16;32.97;101866.72;5093516;28;20450;-76
2023/06/27 02:43:12;;;;;;;101.28;95.57;;;;;;;25.15;33.33;101872.50;5093509;28;20040;-75
2023/06/27 02:45:38;;;;;;;97.63;93.13;;;;;;;25.12;33.47;101865.66;5095748;28;20084;-75
2023/06/27 02:48:04;;;;;;;98.70;94.32;;;;;;;25.10;32.94;101869.88;5096060;28;20034;-75
2023/06/27 02:50:29;;;;;;;98.57;94.18;;;;;;;25.09;32.99;101862.72;5094726;28;20040;-76
2023/06/27 02:52:55;;;;;;;100.07;95.43;;;;;;;25.07;33.10;101864.97;5095007;28;20477;-74
2023/06/27 02:55:20;;;;;;;99.05;94.28;;;;;;;25.04;33.31;101861.72;5096228;28;20052;-74
2023/06/27 02:57:46;;;;;;;100.10;95.47;;;;;;;25.03;33.53;101870.34;5094048;28;20533;-77
2023/06/27 03:00:12;;;;;;;98.97;94.05;;;;;;;25.01;33.24;101872.59;5093316;28;20028;-75
2023/06/27 03:02:37;;;;;;;98.80;94.10;;;;;;;25.00;33.45;101876.50;5093622;28;20388;-74
2023/06/27 03:05:02;;;;;;;97.80;93.43;;;;;;;24.96;33.74;101876.28;5092540;28;20036;-74
2023/06/27 03:07:28;;;;;;;96.50;92.10;;;;;;;24.94;33.68;101867.47;5092279;28;20032;-74
2023/06/27 03:09:53;;;;;;;99.20;93.70;;;;;;;24.93;33.49;101868.63;5091822;28;20039;-77
2023/06/27 03:12:19;;;;;;;102.90;97.45;;;;;;;24.91;33.83;101879.19;5091984;28;20029;-74
2023/06/27 03:14:44;;;;;;;96.57;91.78;;;;;;;24.89;33.74;101875.09;5093228;28;20032;-74
2023/06/27 03:17:09;;;;;;;96.15;91.75;;;;;;;24.88;33.79;101884.53;5092202;28;20036;-75
2023/06/27 03:19:35;;;;;;;96.10;91.53;;;;;;;24.86;33.46;101886.78;5062009;28;20036;-74
2023/06/27 03:22:01;;;;;;;95.50;90.53;;;;;;;24.83;33.74;101882.69;5097389;28;20410;-75
2023/06/27 03:24:26;;;;;;;96.80;92.43;;;;;;;24.81;33.59;101879.41;5096368;28;20028;-76
2023/06/27 03:26:51;;;;;;;96.65;91.93;;;;;;;24.79;33.33;101888.00;5096765;28;20111;-77
2023/06/27 03:29:17;;;;;;;97.05;92.75;;;;;;;24.77;33.56;101894.97;5096769;28;20055;-75
2023/06/27 03:31:42;;;;;;;93.35;88.45;;;;;;;24.76;33.87;101893.34;5095729;28;20402;-74
2023/06/27 03:34:08;;;;;;;95.85;91.22;;;;;;;24.73;33.53;101889.25;5095913;28;20470;-75
2023/06/27 03:36:33;;;;;;;96.03;91.22;;;;;;;24.73;33.87;101896.75;5078566;28;20024;-75
2023/06/27 03:38:59;;;;;;;97.28;92.13;;;;;;;24.71;33.71;101887.94;5096907;28;20035;-76
2023/06/27 03:41:25;;;;;;;95.65;91.28;;;;;;;24.69;33.69;101893.75;5096970;28;20039;-76
2023/06/27 03:43:50;;;;;;;97.10;92.47;;;;;;;24.67;33.98;101889.69;5094959;28;20048;-76
2023/06/27 03:46:16;;;;;;;94.30;89.70;;;;;;;24.65;33.81;101890.00;5078618;28;20036;-76
2023/06/27 03:48:41;;;;;;;96.45;91.88;;;;;;;24.63;34.06;101885.91;5095826;28;20036;-76
2023/06/27 03:51:07;;;;;;;97.07;92.53;;;;;;;24.60;33.92;101899.22;5095108;28;20483;-75
2023/06/27 03:53:32;;;;;;;94.68;90.18;;;;;;;24.58;33.87;101897.91;5095983;28;20032;-75
2023/06/27 03:56:00;;;;;;;94.00;89.70;;;;;;;24.56;34.11;101891.84;5096301;28;20136;-77
2023/06/27 03:58:26;;;;;;;94.68;90.40;;;;;;;24.54;33.95;101888.56;5095992;28;20073;-74
2023/06/27 04:00:53;;;;;;;96.35;91.85;;;;;;;24.52;33.79;101888.91;5096190;28;20036;-75
2023/06/27 04:03:19;;;;;;;92.82;88.32;;;;;;;24.51;34.33;101890.03;5095095;28;20038;-76
2023/06/27 04:05:44;;;;;;;94.50;90.03;;;;;;;24.49;34.05;101889.50;5095438;28;20031;-76
2023/06/27 04:08:09;;;;;;;96.10;91.70;;;;;;;24.47;33.99;101885.41;5096017;28;20110;-76
2023/06/27 04:10:35;;;;;;;93.28;88.78;;;;;;;24.45;34.25;101890.44;5078216;28;20032;-76
2023/06/27 04:13:00;;;;;;;94.20;89.97;;;;;;;24.44;34.05;101888.78;5094519;28;20479;-76
2023/06/27 04:15:26;;;;;;;93.63;89.30;;;;;;;24.42;34.06;101883.56;5096167;28;20464;-75
2023/06/27 04:17:51;;;;;;;93.68;89.07;;;;;;;24.39;34.49;101885.00;5095250;28;20070;-74
2023/06/27 04:20:17;;;;;;;91.43;87.22;;;;;;;24.38;34.13;101888.06;5096047;28;20353;-75
2023/06/27 04:22:42;;;;;;;94.38;88.63;;;;;;;24.36;34.10;101887.56;5096275;28;20032;-76
2023/06/27 04:25:10;;;;;;;94.82;89.78;;;;;;;24.34;34.27;101887.03;5095380;28;20039;-75
2023/06/27 04:27:37;;;;;;;91.88;87.38;;;;;;;24.32;34.43;101887.38;5096222;28;20043;-75
2023/06/27 04:30:03;;;;;;;95.45;90.40;;;;;;;24.31;34.43;101893.19;5093684;28;20364;-76
2023/06/27 04:32:28;;;;;;;92.03;87.93;;;;;;;24.29;34.15;101899.03;5094851;28;20038;-75
2023/06/27 04:34:57;;;;;;;95.97;91.28;;;;;;;24.27;34.29;101894.94;5094227;28;20426;-75
2023/06/27 04:37:23;;;;;;;92.97;88.57;;;;;;;24.25;34.44;101900.75;5094207;28;20081;-74
2023/06/27 04:39:49;;;;;;;92.82;87.65;;;;;;;24.24;34.38;101901.91;5095111;28;20430;-77
2023/06/27 04:42:14;;;;;;;93.28;88.63;;;;;;;24.22;34.40;101906.91;5093826;28;20032;-75
2023/06/27 04:44:40;;;;;;;92.78;88.00;;;;;;;24.20;34.65;101903.63;5095503;28;20036;-75
2023/06/27 04:47:05;;;;;;;93.07;88.55;;;;;;;24.19;34.76;101901.97;5093645;28;20032;-75
2023/06/27 04:49:31;;;;;;;91.72;87.45;;;;;;;24.16;34.48;101911.69;5094863;28;20035;-75
2023/06/27 04:51:56;;;;;;;92.63;88.13;;;;;;;24.15;34.66;101906.50;5093877;28;20399;-75
2023/06/27 04:54:22;;;;;;;91.68;87.38;;;;;;;24.13;34.67;101915.06;5095022;28;20052;-76
2023/06/27 04:56:47;;;;;;;91.10;86.82;;;;;;;24.11;34.54;101908.22;5093559;28;20480;-75
2023/06/27 04:59:12;;;;;;;92.32;88.13;;;;;;;24.09;34.61;101903.03;5077456;28;20028;-75
2023/06/27 05:01:38;;;;;;;90.85;86.28;;;;;;;24.08;34.70;101908.84;5093920;28;20384;-75
2023/06/27 05:04:06;;;;;;;93.18;88.78;;;;;;;24.06;34.78;101905.56;5076773;28;20036;-76
2023/06/27 05:06:32;;;;;;;94.10;89.63;;;;;;;24.05;34.63;101907.50;5094427;28;20431;-76
2023/06/27 05:08:58;;;;;;;91.07;86.78;;;;;;;24.02;34.71;101916.41;5093825;28;20047;-75
2023/06/27 05:11:24;;;;;;;93.00;88.65;;;;;;;24.01;34.63;101909.22;5093369;28;20040;-80
2023/06/27 05:13:49;;;;;;;93.90;89.05;;;;;;;24.01;34.67;101914.75;5076722;28;20036;-78
2023/06/27 05:16:15;;;;;;;91.22;86.65;;;;;;;23.98;34.98;101910.66;5093419;28;20459;-79
2023/06/27 05:18:41;;;;;;;87.88;83.47;;;;;;;23.98;34.72;101909.84;5093999;28;20093;-76
2023/06/27 05:21:07;;;;;;;89.20;85.20;;;;;;;23.97;34.87;101911.78;5094016;28;20077;-74
2023/06/27 05:23:32;;;;;;;90.13;84.90;;;;;;;23.96;35.28;101914.84;5093180;28;20036;-76
2023/06/27 05:25:58;;;;;;;93.68;88.90;;;;;;;23.95;35.33;101919.56;5094435;28;20027;-76
2023/06/27 05:28:23;;;;;;;91.07;86.80;;;;;;;23.95;35.27;101916.78;5076871;28;20039;-75
2023/06/27 05:30:49;;;;;;;86.50;82.30;;;;;;;23.94;35.06;101911.59;5094446;28;20460;-75
2023/06/27 05:33:14;;;;;;;90.68;85.97;;;;;;;23.93;35.17;101912.69;5092929;28;20114;-74
2023/06/27 05:35:39;;;;;;;92.05;87.40;;;;;;;23.94;35.48;101915.16;5093706;28;20038;-75
2023/06/27 05:38:05;;;;;;;91.30;86.97;;;;;;;23.94;35.19;101908.84;5076106;28;20036;-76
2023/06/27 05:40:31;;;;;;;89.72;85.57;;;;;;;23.94;35.42;101912.41;5100780;28;20058;-75
2023/06/27 05:42:56;;;;;;;91.22;86.07;;;;;;;23.94;35.56;101909.66;5097160;28;20036;-75
2023/06/27 05:45:22;;;;;;;91.93;87.05;;;;;;;23.94;35.48;101906.91;5096308;28;20050;-74
2023/06/27 05:47:47;;;;;;;90.88;85.97;;;;;;;23.95;35.81;101910.47;5096916;28;20114;-75
2023/06/27 05:50:13;;;;;;;88.97;84.40;;;;;;;23.96;35.96;101906.56;5095104;28;20043;-75
2023/06/27 05:52:38;;;;;;;86.97;83.00;;;;;;;23.96;35.79;101906.56;5075804;28;20028;-74
2023/06/27 05:55:04;;;;;;;90.32;85.00;;;;;;;23.97;35.82;101902.69;5093846;28;20498;-74
2023/06/27 05:57:30;;;;;;;88.88;84.68;;;;;;;23.97;35.89;101909.03;5093892;28;20073;-75
2023/06/27 05:59:55;;;;;;;89.85;83.75;;;;;;;23.97;35.95;101908.22;5092524;28;20414;-75
2023/06/27 06:02:20;;;;;;;90.28;85.50;;;;;;;23.98;35.75;101907.91;5093857;28;20048;-75
2023/06/27 06:04:46;;;;;;;93.18;86.97;;;;;;;24.00;36.47;101909.56;5092807;28;20126;-80
2023/06/27 06:07:11;;;;;;;89.47;84.78;;;;;;;23.99;36.93;101908.75;5075874;28;20036;-81
2023/06/27 06:09:37;;;;;;;89.18;84.25;;;;;;;24.01;37.04;101914.75;5094003;28;20036;-83
2023/06/27 06:12:03;;;;;;;89.55;85.43;;;;;;;24.01;36.63;101912.00;5094518;28;20036;-84
2023/06/27 06:14:28;;;;;;;90.18;85.28;;;;;;;24.03;36.44;101914.47;5075961;28;20028;-82
2023/06/27 06:16:53;;;;;;;90.45;85.10;;;;;;;24.04;36.42;101916.06;5075615;28;20073;-81
2023/06/27 06:19:19;;;;;;;92.78;88.13;;;;;;;24.06;36.56;101916.59;5093415;28;20060;-81
2023/06/27 06:21:44;;;;;;;89.38;85.38;;;;;;;24.07;36.90;101915.50;5092719;28;20039;-84
2023/06/27 06:24:10;;;;;;;88.07;83.82;;;;;;;24.08;36.43;101915.16;5076440;28;20043;-82
2023/06/27 06:26:36;;;;;;;89.47;85.18;;;;;;;24.10;36.41;101926.72;5093010;28;20454;-83
2023/06/27 06:29:02;;;;;;;90.82;86.20;;;;;;;24.13;36.39;101925.28;5076388;28;20499;-81
2023/06/27 06:31:28;;;;;;;87.78;83.57;;;;;;;24.16;36.64;101919.16;5076763;28;20028;-81
2023/06/27 06:33:55;;;;;;;90.78;85.78;;;;;;;24.17;36.39;101926.34;5079649;28;20036;-80
2023/06/27 06:36:20;;;;;;;87.70;83.65;;;;;;;24.18;36.42;101926.00;5084505;28;20024;-81
2023/06/27 06:38:46;;;;;;;88.80;84.70;;;;;;;24.21;36.49;101926.53;5110449;28;20048;-82
2023/06/27 06:41:11;;;;;;;89.45;84.70;;;;;;;24.23;36.69;101935.31;5090769;28;20410;-83
2023/06/27 06:43:37;;;;;;;88.63;84.32;;;;;;;24.25;36.63;101935.84;5104145;28;20043;-81
2023/06/27 06:46:02;;;;;;;88.65;84.15;;;;;;;24.27;37.10;101931.66;5095624;28;20042;-81
2023/06/27 06:48:27;;;;;;;89.43;85.25;;;;;;;24.28;36.97;101927.75;5095197;28;20433;-80
2023/06/27 06:50:53;;;;;;;90.43;85.90;;;;;;;24.31;36.56;101937.38;5093541;28;20036;-80
2023/06/27 06:53:20;;;;;;;89.43;85.35;;;;;;;24.34;36.99;101929.31;5077861;28;20124;-80
2023/06/27 06:55:46;;;;;;;93.05;88.35;;;;;;;24.38;37.19;101937.78;5101509;28;20048;-81
2023/06/27 06:58:11;;;;;;;91.78;86.97;;;;;;;24.40;37.25;101936.34;5104954;28;20066;-81
2023/06/27 07:00:37;;;;;;;90.50;86.15;;;;;;;24.44;37.35;101931.00;5101128;28;20120;-80
2023/06/27 07:03:04;;;;;;;90.85;86.47;;;;;;;24.47;37.48;101937.88;5098022;28;20035;-80
2023/06/27 07:05:30;;;;;;;90.78;86.68;;;;;;;24.49;37.03;101935.66;5080323;28;20028;-78
2023/06/27 07:07:55;;;;;;;90.78;86.47;;;;;;;24.49;36.87;101933.69;5095995;28;20380;-78
2023/06/27 07:10:21;;;;;;;95.80;91.18;;;;;;;24.51;37.15;101936.16;5095958;28;20028;-77
2023/06/27 07:12:46;;;;;;;95.05;90.80;;;;;;;24.52;37.61;101938.63;5079275;28;20036;-78
2023/06/27 07:15:12;;;;;;;90.28;86.00;;;;;;;24.55;37.69;101945.47;5095855;28;20024;-78
2023/06/27 07:17:37;;;;;;;92.18;87.60;;;;;;;24.57;37.71;101935.75;5097157;28;20140;-79
2023/06/27 07:20:05;;;;;;;96.45;91.45;;;;;;;24.60;37.51;101940.66;5078807;28;20046;-78
2023/06/27 07:22:30;;;;;;;93.73;89.30;;;;;;;24.66;37.77;101937.78;5095326;28;20034;-79
2023/06/27 07:24:56;;;;;;;94.22;89.85;;;;;;;24.69;37.66;101934.41;5079053;28;20379;-79
2023/06/27 07:27:21;;;;;;;97.60;92.75;;;;;;;24.72;37.77;101928.25;5095335;28;20467;-79
2023/06/27 07:29:46;;;;;;;90.05;85.75;;;;;;;24.74;37.41;101926.81;5078423;28;20458;-79
2023/06/27 07:32:12;;;;;;;91.10;86.65;;;;;;;24.80;37.75;101930.28;5095215;28;20028;-79
2023/06/27 07:34:39;;;;;;;93.85;89.18;;;;;;;24.83;37.69;101932.44;5095847;28;20040;-79
2023/06/27 07:37:06;;;;;;;92.80;88.28;;;;;;;24.88;37.48;101937.03;5096388;28;20537;-79
2023/06/27 07:39:31;;;;;;;93.53;89.13;;;;;;;24.90;37.56;101932.03;5078624;28;20032;-80
2023/06/27 07:41:56;;;;;;;94.00;89.40;;;;;;;24.94;37.28;101933.81;5078226;28;20085;-79
2023/06/27 07:44:22;;;;;;;93.88;89.38;;;;;;;24.98;37.37;101934.84;5095125;28;20387;-79
2023/06/27 07:46:47;;;;;;;93.22;89.03;;;;;;;25.01;37.35;101931.44;5095474;28;20059;-82
2023/06/27 07:49:13;;;;;;;94.10;89.80;;;;;;;25.05;37.08;101923.38;5095838;28;20032;-78
2023/06/27 07:51:38;;;;;;;96.45;91.95;;;;;;;25.08;37.42;101932.97;5078577;28;20464;-79
2023/06/27 07:54:03;;;;;;;95.20;90.97;;;;;;;25.14;37.18;101935.28;5077935;28;20056;-78
2023/06/27 07:56:29;;;;;;;97.53;93.15;;;;;;;25.19;37.07;101928.88;5096740;28;20040;-79
2023/06/27 07:58:55;;;;;;;96.18;91.88;;;;;;;25.22;36.94;101931.84;5078010;28;20105;-79
2023/06/27 08:01:21;;;;;;;95.88;91.57;;;;;;;25.26;37.28;101930.06;5095943;28;20103;-78
2023/06/27 08:03:46;;;;;;;95.43;91.32;;;;;;;25.31;37.24;101925.53;5077887;28;20032;-78
2023/06/27 08:06:12;;;;;;;93.93;89.63;;;;;;;25.35;36.89;101921.84;5093307;28;20032;-79
2023/06/27 08:08:37;;;;;;;99.07;94.70;;;;;;;25.39;37.04;101917.31;5077866;28;20060;-78
2023/06/27 08:11:03;;;;;;;100.63;95.80;;;;;;;25.43;36.77;101914.75;5077617;28;20456;-78
2023/06/27 08:13:29;;;;;;;97.30;93.00;;;;;;;25.46;36.59;101920.44;5096142;28;20028;-78
2023/06/27 08:15:54;;;;;;;95.55;91.25;;;;;;;25.52;36.93;101917.53;5094819;28;20040;-79
2023/06/27 08:18:20;;;;;;;100.63;96.25;;;;;;;25.56;36.47;101918.56;5095625;28;20458;-78
2023/06/27 08:20:45;;;;;;;99.88;95.55;;;;;;;25.59;36.60;101920.69;5095591;28;20430;-80
2023/06/27 08:23:11;;;;;;;97.03;92.53;;;;;;;25.63;36.63;101930.81;5077316;28;20381;-78
2023/06/27 08:25:36;;;;;;;99.40;94.60;;;;;;;25.66;36.48;101919.09;5094843;28;20107;-79
2023/06/27 08:28:02;;;;;;;100.70;96.18;;;;;;;25.71;36.23;101923.69;5077239;28;20032;-78
2023/06/27 08:30:28;;;;;;;96.75;92.45;;;;;;;25.74;36.22;101931.34;5060670;28;20024;-78
2023/06/27 08:32:56;;;;;;;100.22;95.68;;;;;;;25.79;36.21;101924.88;5079793;28;20032;-77
2023/06/27 08:35:22;;;;;;;99.47;95.13;;;;;;;25.82;35.95;101927.00;5096956;28;20059;-78
2023/06/27 08:37:48;;;;;;;98.03;93.57;;;;;;;25.87;35.81;101929.66;5077294;28;20028;-79
2023/06/27 08:40:23;;;;;;;97.25;93.05;;;;;;;25.92;35.98;101928.72;5101069;28;20040;-78
2023/06/27 08:42:49;;;;;;;99.38;94.80;;;;;;;25.97;35.90;101931.34;5098337;28;20035;-78
2023/06/27 08:45:14;;;;;;;99.05;94.60;;;;;;;26.00;35.82;101922.38;5094048;28;20028;-78
2023/06/27 08:47:43;;;;;;;102.70;98.32;;;;;;;26.03;36.08;101922.59;5095064;28;20036;-79
2023/06/27 08:50:13;;;;;;;100.50;96.20;;;;;;;26.07;35.89;101925.53;5094381;28;20380;-80
2023/06/27 08:52:43;;;;;;;100.82;96.32;;;;;;;26.10;35.66;101917.38;5094795;28;20110;-79
2023/06/27 08:55:18;;;;;;;102.80;98.32;;;;;;;26.15;35.88;101919.19;5093434;28;20567;-79
2023/06/27 08:57:46;;;;;;;100.43;95.72;;;;;;;26.19;35.15;101916.63;5095064;28;20044;-79
2023/06/27 09:00:13;;;;;;;100.97;96.68;;;;;;;26.22;35.58;101915.97;5093406;28;20032;-80
2023/06/27 09:02:40;;;;;;;106.35;101.55;;;;;;;26.25;35.82;101907.00;5076995;28;20020;-80
2023/06/27 09:05:07;;;;;;;101.57;97.18;;;;;;;26.29;35.32;101921.88;5093625;28;20036;-79
2023/06/27 09:07:33;;;;;;;104.25;99.78;;;;;;;26.32;35.20;101915.69;5093495;28;20110;-79
2023/06/27 09:09:59;;;;;;;103.80;99.30;;;;;;;26.36;35.29;101913.06;5076853;28;20108;-80
2023/06/27 09:12:27;;;;;;;104.80;99.90;;;;;;;26.41;35.19;101921.22;5093231;28;20024;-79
2023/06/27 09:14:53;;;;;;;105.90;101.30;;;;;;;26.44;34.93;101918.66;5094201;28;20028;-79
2023/06/27 09:17:19;;;;;;;105.32;100.82;;;;;;;26.48;34.89;101914.06;5092805;28;20031;-80
2023/06/27 09:19:44;;;;;;;109.30;104.40;;;;;;;26.52;34.60;101917.03;5093245;28;20060;-79
2023/06/27 09:22:10;;;;;;;106.63;102.05;;;;;;;26.57;34.35;101913.31;5076300;28;20034;-79
2023/06/27 09:24:40;;;;;;;104.80;99.60;;;;;;;26.59;34.60;101913.81;5076482;28;20043;-79
2023/06/27 09:27:07;;;;;;;106.47;101.32;;;;;;;26.63;34.37;101914.78;5094488;28;20101;-77
2023/06/27 09:29:33;;;;;;;105.13;100.53;;;;;;;26.66;34.70;101919.69;5059870;28;20032;-75
2023/06/27 09:32:08;;;;;;;106.65;101.85;;;;;;;26.67;34.23;101919.38;5093102;28;20030;-76
2023/06/27 09:34:35;;;;;;;105.97;101.38;;;;;;;26.70;34.16;101921.47;5093067;28;20028;-76
2023/06/27 09:37:02;;;;;;;106.88;102.18;;;;;;;26.74;34.37;101922.47;5093987;28;20024;-76
2023/06/27 09:39:28;;;;;;;109.60;104.78;;;;;;;26.77;34.13;101924.59;5094192;28;20095;-77
2023/06/27 09:41:53;;;;;;;109.82;105.05;;;;;;;26.80;34.45;101928.69;5092978;28;20127;-76
2023/06/27 09:44:25;;;;;;;103.07;98.68;;;;;;;26.83;34.01;101936.34;5075866;28;20039;-76
2023/06/27 09:46:52;;;;;;;107.03;102.43;;;;;;;26.86;33.75;101926.56;5092333;28;20035;-76
2023/06/27 09:49:18;;;;;;;107.38;102.57;;;;;;;26.90;34.09;101927.53;5093999;28;20072;-75
2023/06/27 09:51:49;;;;;;;109.00;104.18;;;;;;;26.91;33.71;101927.22;5094303;28;20036;-76
2023/06/27 09:54:18;;;;;;;110.60;105.90;;;;;;;26.94;33.67;101925.75;5093675;28;20456;-75
2023/06/27 09:56:48;;;;;;;110.00;105.20;;;;;;;26.96;33.78;101935.38;5094437;28;20403;-75
2023/06/27 09:59:17;;;;;;;107.07;102.25;;;;;;;26.98;33.70;101924.75;5094253;28;20070;-76
2023/06/27 10:01:43;;;;;;;108.25;103.55;;;;;;;27.01;33.51;101931.63;5093720;28;20058;-76
2023/06/27 10:04:08;;;;;;;109.90;105.20;;;;;;;27.04;33.66;101932.91;5092811;28;20467;-75
2023/06/27 10:06:34;;;;;;;110.60;105.80;;;;;;;27.06;33.31;101925.91;5093959;28;20035;-75
2023/06/27 10:09:00;;;;;;;109.65;104.97;;;;;;;27.09;33.58;101927.22;5094112;28;20078;-75
2023/06/27 10:11:27;;;;;;;105.88;101.18;;;;;;;27.11;33.60;101924.94;5092497;28;20032;-76
2023/06/27 10:13:53;;;;;;;105.82;101.32;;;;;;;27.13;33.30;101925.44;5093294;28;20034;-75
2023/06/27 10:16:19;;;;;;;106.65;101.97;;;;;;;27.14;33.54;101930.66;5075735;28;20069;-75
2023/06/27 10:18:45;;;;;;;112.72;107.90;;;;;;;27.17;34.03;101943.88;5093620;28;20111;-75
2023/06/27 10:21:12;;;;;;;108.38;103.47;;;;;;;27.21;33.63;101937.69;5092311;28;20071;-76
2023/06/27 10:23:45;;;;;;;106.97;102.40;;;;;;;27.22;34.04;101931.03;5094170;28;20526;-76
2023/06/27 10:26:11;;;;;;;110.50;105.80;;;;;;;27.25;33.99;101930.34;5093991;28;20107;-75
2023/06/27 10:28:36;;;;;;;109.63;104.93;;;;;;;27.29;33.22;101934.09;5092512;28;20078;-75
2023/06/27 10:31:05;;;;;;;109.00;104.30;;;;;;;27.30;33.55;101933.78;5093574;28;20031;-75
2023/06/27 10:33:32;;;;;;;108.28;103.47;;;;;;;27.33;33.37;101927.56;5093903;28;20032;-76
2023/06/27 10:36:02;;;;;;;109.75;104.75;;;;;;;27.37;33.07;101930.50;5092559;28;20455;-76
2023/06/27 10:38:39;;;;;;;114.68;109.88;;;;;;;27.40;32.88;101929.84;5091698;28;20468;-75
2023/06/27 10:41:06;;;;;;;110.10;105.40;;;;;;;27.43;33.10;101931.16;5075442;28;20458;-77
2023/06/27 10:43:34;;;;;;;111.25;106.32;;;;;;;27.45;32.97;101938.00;5092339;28;20050;-79
2023/06/27 10:46:11;;;;;;;109.05;103.70;;;;;;;27.48;33.15;101928.19;5092040;28;20042;-75
2023/06/27 10:48:50;;;;;;;114.05;109.10;;;;;;;27.51;32.83;101924.75;5093743;28;20050;-75
2023/06/27 10:51:21;;;;;;;111.32;106.53;;;;;;;27.53;32.85;101926.06;5093990;28;20026;-75
2023/06/27 10:54:08;;;;;;;113.05;108.25;;;;;;;27.56;32.84;101932.91;5092250;28;20525;-75
2023/06/27 10:56:36;;;;;;;113.28;108.45;;;;;;;27.58;33.16;101933.41;5093743;28;20048;-75
2023/06/27 10:59:04;;;;;;;115.18;110.25;;;;;;;27.60;33.11;101922.78;5093034;28;20040;-75
2023/06/27 11:01:34;;;;;;;118.10;112.50;;;;;;;27.62;32.56;101923.28;5092144;28;20115;-75